Time;durP1;ratioP1;P1;durP2;ratioP2;P2;SDS_P1;SDS_P2;PMS_P1;PMS_P2;Temp;Humidity;BMP_temperature;BMP_pressure;BME280_temperature;BME280_humidity;BME280_pressure;Samples;Min_cycle;Max_cycle;Signal;HPM_P1;HPM_P2
2022/08/16 00:04:15;;;;;;;5.43;0.98;;;20.20;99.90;;;;;;10445146;28;20053;-87
2022/08/16 00:09:17;;;;;;;3.13;0.95;;;20.20;99.90;;;;;;10461593;28;20110;-87
2022/08/16 00:14:24;;;;;;;1.92;0.88;;;20.00;99.90;;;;;;10442325;28;20052;-88
2022/08/16 00:19:33;;;;;;;1.80;0.80;;;19.90;99.90;;;;;;10449991;28;20061;-88
2022/08/16 00:24:43;;;;;;;4.70;0.90;;;20.10;99.90;;;;;;10466113;28;20565;-89
2022/08/16 00:29:47;;;;;;;2.58;0.70;;;20.10;99.90;;;;;;10452859;28;20053;-88
2022/08/16 00:35:14;;;;;;;3.45;1.55;;;20.20;99.90;;;;;;10432048;28;20102;-89
2022/08/16 00:40:23;;;;;;;1.67;0.82;;;19.70;99.90;;;;;;10415931;28;20149;-89
2022/08/16 00:46:04;;;;;;;2.00;0.88;;;19.80;99.90;;;;;;10452669;28;20047;-87
2022/08/16 00:51:28;;;;;;;1.35;0.63;;;19.80;99.90;;;;;;10455952;28;20463;-88
2022/08/16 00:56:34;;;;;;;2.03;1.10;;;19.80;99.90;;;;;;10459085;28;20050;-88
2022/08/16 01:01:56;;;;;;;3.05;1.13;;;20.00;99.90;;;;;;10462669;28;20055;-88
2022/08/16 01:07:01;;;;;;;2.75;0.85;;;19.80;99.90;;;;;;10440302;28;20129;-88
2022/08/16 01:12:07;;;;;;;3.55;1.27;;;19.70;99.90;;;;;;10464385;28;20033;-88
2022/08/16 01:17:13;;;;;;;4.10;1.08;;;19.60;99.90;;;;;;10450404;28;20045;-88
2022/08/16 01:23:10;;;;;;;3.45;0.98;;;19.70;99.90;;;;;;10443068;28;20076;-88
2022/08/16 01:28:14;;;;;;;;;;;19.70;99.90;;;;;;10400192;28;20040;-88
2022/08/16 01:33:21;;;;;;;3.25;1.25;;;19.70;99.90;;;;;;10454221;28;19942;-88
2022/08/16 01:38:26;;;;;;;3.13;1.00;;;19.80;99.90;;;;;;10463447;28;20055;-88
2022/08/16 01:43:30;;;;;;;1.48;1.02;;;19.50;99.90;;;;;;10463846;28;20044;-87
2022/08/16 01:48:32;;;;;;;2.22;1.25;;;19.50;99.90;;;;;;10436475;28;20025;-87
2022/08/16 01:53:36;;;;;;;1.60;1.00;;;19.50;99.90;;;;;;10466416;28;20099;-87
2022/08/16 01:58:41;;;;;;;2.35;1.00;;;19.50;99.90;;;;;;10448500;28;20041;-88
2022/08/16 02:03:49;;;;;;;1.50;0.90;;;19.40;99.90;;;;;;10431561;28;20056;-88
2022/08/16 02:08:56;;;;;;;2.30;1.10;;;19.40;99.90;;;;;;10446186;28;20053;-88
2022/08/16 02:14:00;;;;;;;3.08;1.20;;;19.50;99.90;;;;;;10453689;28;20036;-88
2022/08/16 02:19:04;;;;;;;3.42;1.30;;;19.40;99.90;;;;;;10424883;28;20118;-88
2022/08/16 02:24:17;;;;;;;3.63;2.13;;;19.30;99.90;;;;;;10449287;28;20052;-87
2022/08/16 02:29:33;;;;;;;2.00;1.00;;;19.20;99.90;;;;;;10444594;28;20128;-88
2022/08/16 02:34:35;;;;;;;5.20;1.30;;;19.10;99.90;;;;;;10427168;28;20503;-88
2022/08/16 02:39:41;;;;;;;1.87;1.00;;;19.10;99.90;;;;;;10450540;28;20495;-88
2022/08/16 02:44:43;;;;;;;2.90;1.20;;;18.60;99.90;;;;;;10443450;28;20053;-88
2022/08/16 02:49:49;;;;;;;3.28;1.40;;;19.00;99.90;;;;;;10416643;28;20041;-88
2022/08/16 02:55:11;;;;;;;2.20;1.02;;;19.10;99.90;;;;;;10451598;28;20407;-88
2022/08/16 03:00:17;;;;;;;2.47;1.20;;;18.70;99.90;;;;;;10446598;28;20067;-90
2022/08/16 03:05:35;;;;;;;2.55;1.23;;;18.80;99.90;;;;;;10464883;28;20157;-90
2022/08/16 03:10:39;;;;;;;3.30;1.75;;;18.70;99.90;;;;;;10435686;28;20048;-91
2022/08/16 03:15:41;;;;;;;4.22;1.60;;;18.70;99.90;;;;;;10443074;28;20087;-91
2022/08/16 03:20:43;;;;;;;4.13;2.10;;;18.70;99.90;;;;;;10400970;28;20075;-90
2022/08/16 03:25:56;;;;;;;3.13;1.45;;;18.60;99.90;;;;;;10440380;28;20479;-90
2022/08/16 03:30:58;;;;;;;2.28;1.60;;;18.60;99.90;;;;;;10453372;28;20052;-90
2022/08/16 03:36:01;;;;;;;5.05;1.63;;;18.50;99.90;;;;;;10430511;28;20055;-90
2022/08/16 03:41:26;;;;;;;7.07;2.10;;;18.70;99.90;;;;;;10438722;28;20396;-90
2022/08/16 03:46:47;;;;;;;3.45;2.00;;;19.10;99.90;;;;;;10409577;28;20048;-92
2022/08/16 03:51:51;;;;;;;5.22;1.90;;;18.60;99.90;;;;;;10441174;28;20064;-92
2022/08/16 03:56:53;;;;;;;3.88;1.80;;;18.40;99.90;;;;;;10445209;28;20065;-91
2022/08/16 04:02:00;;;;;;;3.78;2.10;;;19.60;99.90;;;;;;10446529;28;20055;-91
2022/08/16 04:07:05;;;;;;;3.97;1.52;;;18.70;99.90;;;;;;10434040;28;20097;-91
2022/08/16 04:12:10;;;;;;;4.43;1.65;;;18.60;99.90;;;;;;10443271;28;20055;-91
2022/08/16 04:17:32;;;;;;;2.63;2.00;;;18.50;99.90;;;;;;10297626;28;20056;-92
2022/08/16 04:22:36;;;;;;;5.90;2.17;;;19.20;99.90;;;;;;10272561;28;20358;-92
2022/08/16 04:27:43;;;;;;;2.90;1.90;;;18.60;99.90;;;;;;10368455;28;20065;-92
2022/08/16 04:32:58;;;;;;;4.03;2.10;;;18.60;99.90;;;;;;10256740;28;20053;-93
2022/08/16 04:38:18;;;;;;;5.15;2.63;;;18.30;99.90;;;;;;10240156;28;20049;-92
2022/08/16 04:43:28;;;;;;;3.30;2.20;;;18.70;99.90;;;;;;10188755;28;20060;-91
2022/08/16 04:48:50;;;;;;;3.70;1.75;;;18.50;99.90;;;;;;10258520;28;20089;-91
2022/08/16 04:54:13;;;;;;;2.83;1.70;;;18.70;99.90;;;;;;10023697;28;20467;-91
2022/08/16 04:59:20;;;;;;;4.85;2.25;;;18.60;99.90;;;;;;10419428;28;20426;-87
2022/08/16 05:04:23;;;;;;;4.40;2.33;;;18.50;99.90;;;;;;10459296;28;21922;-86
2022/08/16 05:09:30;;;;;;;5.00;2.05;;;18.60;99.90;;;;;;10445230;28;20596;-86
2022/08/16 05:14:37;;;;;;;11.18;2.80;;;18.70;99.90;;;;;;10461555;28;20056;-86
2022/08/16 05:19:46;;;;;;;5.57;2.60;;;18.90;99.90;;;;;;10456875;28;20578;-86
2022/08/16 05:24:59;;;;;;;7.70;3.10;;;18.70;99.90;;;;;;10440409;28;20063;-86
2022/08/16 05:30:01;;;;;;;7.70;3.08;;;18.70;99.90;;;;;;10455336;28;20143;-86
2022/08/16 05:35:23;;;;;;;4.75;2.80;;;18.80;99.90;;;;;;10440355;28;20059;-86
2022/08/16 05:40:25;;;;;;;7.40;3.15;;;18.60;99.90;;;;;;10437370;28;20123;-86
2022/08/16 05:45:27;;;;;;;5.82;3.03;;;18.80;99.90;;;;;;10444538;28;20064;-87
2022/08/16 05:50:29;;;;;;;4.85;2.53;;;18.90;99.90;;;;;;10458166;28;20507;-87
2022/08/16 05:55:35;;;;;;;12.27;3.35;;;19.10;99.90;;;;;;10453998;28;20052;-87
2022/08/16 06:00:41;;;;;;;5.97;3.53;;;19.00;99.90;;;;;;10452967;28;20048;-87
2022/08/16 06:05:43;;;;;;;5.90;2.90;;;19.10;99.90;;;;;;10461913;28;20121;-83
2022/08/16 06:10:48;;;;;;;6.78;3.33;;;19.30;99.90;;;;;;10470616;28;20052;-83
2022/08/16 06:16:10;;;;;;;8.52;3.20;;;19.30;99.90;;;;;;10465907;28;20051;-83
2022/08/16 06:21:19;;;;;;;10.27;4.55;;;19.40;99.90;;;;;;10457956;28;20049;-83
2022/08/16 06:26:24;;;;;;;4.53;3.30;;;19.40;99.90;;;;;;10467260;28;20048;-84
2022/08/16 06:31:38;;;;;;;5.63;3.03;;;19.60;99.90;;;;;;10470550;28;20487;-84
2022/08/16 06:36:50;;;;;;;7.13;3.30;;;19.70;99.90;;;;;;10448950;28;20045;-90
2022/08/16 06:42:00;;;;;;;5.32;3.13;;;19.70;99.90;;;;;;10433061;28;20045;-87
2022/08/16 06:47:02;;;;;;;7.20;4.13;;;20.10;99.90;;;;;;10422724;28;20052;-87
2022/08/16 06:52:04;;;;;;;5.22;3.40;;;20.10;99.90;;;;;;10470444;28;20124;-88
2022/08/16 06:57:26;;;;;;;4.80;3.40;;;20.10;99.90;;;;;;10451865;28;20048;-89
2022/08/16 07:02:28;;;;;;;6.10;3.60;;;20.20;99.90;;;;;;10460868;28;20051;-91
2022/08/16 07:07:34;;;;;;;;;;;20.50;99.90;;;;;;10430631;28;20487;-83
2022/08/16 07:12:37;;;;;;;3.03;2.47;;;20.30;99.90;;;;;;10463621;28;19921;-83
2022/08/16 07:17:48;;;;;;;4.15;2.45;;;20.50;99.90;;;;;;10445122;28;20048;-84
2022/08/16 07:22:55;;;;;;;5.85;2.90;;;20.80;99.90;;;;;;10427148;28;20110;-83
2022/08/16 07:28:00;;;;;;;3.50;2.60;;;21.20;99.90;;;;;;10433193;28;20471;-83
2022/08/16 07:33:04;;;;;;;3.85;2.58;;;21.20;99.90;;;;;;10444565;28;20525;-84
2022/08/16 07:38:07;;;;;;;5.60;2.77;;;21.50;99.90;;;;;;10442973;28;20499;-83
2022/08/16 07:43:09;;;;;;;5.10;3.10;;;21.70;99.90;;;;;;10463968;28;20440;-89
2022/08/16 07:48:11;;;;;;;5.47;2.92;;;21.70;99.90;;;;;;10463304;28;20044;-84
2022/08/16 07:53:14;;;;;;;4.70;2.40;;;21.90;99.90;;;;;;10441279;28;20056;-85
2022/08/16 07:58:17;;;;;;;8.57;2.97;;;21.80;99.90;;;;;;10432385;28;20078;-86
2022/08/16 08:03:36;;;;;;;5.85;2.83;;;21.80;99.90;;;;;;10447769;28;20059;-86
2022/08/16 08:08:41;;;;;;;7.00;2.40;;;22.10;99.90;;;;;;10461996;28;20055;-88
2022/08/16 08:13:53;;;;;;;4.53;2.28;;;23.00;99.90;;;;;;10432691;28;20136;-86
2022/08/16 08:18:55;;;;;;;4.22;2.28;;;22.20;99.90;;;;;;10434007;28;20409;-88
2022/08/16 08:24:04;;;;;;;7.50;2.35;;;22.30;99.90;;;;;;10434484;28;20407;-87
2022/08/16 08:29:10;;;;;;;3.53;1.40;;;22.60;99.90;;;;;;10429059;28;20045;-87
2022/08/16 08:34:16;;;;;;;4.03;1.60;;;22.70;99.90;;;;;;10392657;28;20091;-87
2022/08/16 08:39:20;;;;;;;3.28;1.75;;;23.10;99.90;;;;;;10417599;28;20095;-87
2022/08/16 08:44:24;;;;;;;3.92;1.52;;;23.10;99.90;;;;;;10436228;28;20044;-87
2022/08/16 08:49:32;;;;;;;4.90;2.15;;;23.30;99.90;;;;;;10428530;28;20072;-89
2022/08/16 08:54:51;;;;;;;1.63;1.20;;;23.50;99.90;;;;;;10431238;28;20044;-88
2022/08/16 08:59:54;;;;;;;2.28;1.05;;;23.50;99.90;;;;;;10441857;28;20075;-93
2022/08/16 09:04:57;;;;;;;4.18;1.27;;;23.50;99.90;;;;;;10460475;28;20106;-88
2022/08/16 09:09:59;;;;;;;7.72;1.20;;;24.00;99.90;;;;;;10437679;28;20102;-85
2022/08/16 09:15:25;;;;;;;1.92;0.88;;;24.00;99.90;;;;;;10461620;28;20052;-88
2022/08/16 09:20:34;;;;;;;7.00;1.40;;;24.20;99.90;;;;;;10466252;28;20048;-88
2022/08/16 09:25:56;;;;;;;4.47;1.15;;;24.20;99.90;;;;;;10456797;28;20055;-88
2022/08/16 09:30:59;;;;;;;2.40;1.02;;;24.40;99.90;;;;;;10443012;28;20230;-88
2022/08/16 09:36:01;;;;;;;1.10;1.00;;;24.60;99.90;;;;;;10462954;28;20072;-88
2022/08/16 09:41:06;;;;;;;1.40;0.98;;;24.60;99.90;;;;;;10448900;28;20146;-89
2022/08/16 09:46:16;;;;;;;2.20;0.80;;;25.10;99.90;;;;;;10465601;28;20058;-85
2022/08/16 09:51:39;;;;;;;0.77;0.60;;;25.10;99.90;;;;;;10476554;28;20063;-85
2022/08/16 09:56:41;;;;;;;1.83;0.93;;;25.30;99.90;;;;;;10436749;28;20045;-88
2022/08/16 10:01:55;;;;;;;1.80;0.80;;;25.70;99.90;;;;;;10438389;28;20057;-88
2022/08/16 10:06:57;;;;;;;2.45;1.15;;;25.90;99.90;;;;;;10415150;28;20045;-88
2022/08/16 10:17:20;;;;;;;2.65;1.05;;;25.80;99.90;;;;;;10432418;28;20045;-87
2022/08/16 10:22:25;;;;;;;3.13;0.95;;;25.60;99.90;;;;;;10409034;28;20049;-88
2022/08/16 10:27:27;;;;;;;1.42;1.13;;;25.60;99.90;;;;;;10441281;28;20039;-88
2022/08/16 10:32:51;;;;;;;3.40;0.90;;;25.90;99.90;;;;;;10434584;28;20057;-87
2022/08/16 10:37:53;;;;;;;2.13;0.85;;;26.00;99.90;;;;;;10437164;28;20049;-90
2022/08/16 10:42:57;;;;;;;3.33;1.00;;;25.90;99.90;;;;;;10362120;28;20132;-92
2022/08/16 10:48:02;;;;;;;2.08;1.05;;;26.30;99.90;;;;;;10359881;28;20059;-91
2022/08/16 10:53:06;;;;;;;2.00;0.82;;;26.10;99.90;;;;;;10384712;28;20061;-90
2022/08/16 10:58:11;;;;;;;2.17;0.70;;;26.60;99.90;;;;;;10342481;28;20070;-91
2022/08/16 11:03:17;;;;;;;0.98;0.70;;;26.60;99.90;;;;;;10407091;28;20075;-89
2022/08/16 11:08:39;;;;;;;5.15;0.90;;;27.00;99.90;;;;;;10415863;28;20067;-89
2022/08/16 11:13:47;;;;;;;3.00;1.00;;;27.20;99.90;;;;;;10419016;28;20049;-89
2022/08/16 11:19:16;;;;;;;1.60;0.90;;;26.70;99.90;;;;;;10389228;28;20045;-92
2022/08/16 11:24:33;;;;;;;1.33;0.80;;;27.20;99.90;;;;;;10422006;28;20124;-90
2022/08/16 11:29:43;;;;;;;2.25;0.60;;;26.80;99.90;;;;;;10422015;28;20045;-89
2022/08/16 11:34:45;;;;;;;2.00;1.00;;;27.20;99.90;;;;;;10408027;28;20050;-89
2022/08/16 11:40:08;;;;;;;1.17;0.70;;;27.30;99.90;;;;;;10393004;28;20040;-90
2022/08/16 11:45:15;;;;;;;2.78;0.70;;;27.80;99.90;;;;;;10318297;28;20049;-91
2022/08/16 11:50:22;;;;;;;1.40;1.00;;;28.00;99.90;;;;;;10399322;28;20049;-90
2022/08/16 11:55:24;;;;;;;3.08;0.90;;;28.10;99.90;;;;;;10425981;28;20579;-91
2022/08/16 12:00:28;;;;;;;1.45;0.82;;;27.90;99.80;;;;;;10408595;28;20060;-90
2022/08/16 12:05:50;;;;;;;1.83;0.77;;;28.50;99.90;;;;;;10420446;28;20103;-89
2022/08/16 12:10:54;;;;;;;2.53;0.70;;;28.40;99.00;;;;;;10310068;28;21673;-92
2022/08/16 12:16:02;;;;;;;1.10;0.60;;;28.60;98.60;;;;;;10236524;28;20043;-94
2022/08/16 12:21:24;;;;;;;1.55;0.60;;;28.60;98.40;;;;;;10225856;28;20044;-93
2022/08/16 12:27:35;;;;;;;0.70;0.60;;;28.60;97.20;;;;;;10142600;28;20112;-93
2022/08/16 12:40:42;;;;;;;1.10;0.75;;;29.40;96.20;;;;;;10060863;28;20058;-93
2022/08/16 12:46:11;;;;;;;2.08;0.60;;;29.40;96.50;;;;;;9841700;28;20052;-93
2022/08/16 12:51:35;;;;;;;1.25;0.60;;;30.50;94.90;;;;;;9843788;28;20047;-93
2022/08/16 12:57:14;;;;;;;1.75;0.80;;;31.00;93.90;;;;;;9927416;28;20048;-91
2022/08/16 13:02:45;;;;;;;2.23;0.90;;;31.30;93.60;;;;;;9948824;28;21817;-92
2022/08/16 13:08:01;;;;;;;1.00;0.60;;;31.70;93.00;;;;;;10205382;28;20625;-93
2022/08/16 13:13:07;;;;;;;1.98;0.80;;;31.80;92.70;;;;;;10093109;28;20051;-93
2022/08/16 13:18:15;;;;;;;1.10;0.70;;;32.10;82.00;;;;;;10264066;28;20243;-92
2022/08/16 13:23:39;;;;;;;2.25;0.70;;;31.90;82.60;;;;;;10285819;28;20056;-91
2022/08/16 13:28:49;;;;;;;1.25;0.60;;;32.20;80.20;;;;;;10157072;28;20136;-92
2022/08/16 13:35:08;;;;;;;1.45;0.50;;;32.50;76.50;;;;;;10246942;28;20045;-93
2022/08/16 13:40:37;;;;;;;1.73;0.57;;;32.20;75.10;;;;;;9754068;28;20145;-92
2022/08/16 13:45:42;;;;;;;3.30;0.70;;;32.60;74.30;;;;;;10013535;28;20052;-92
2022/08/16 13:51:01;;;;;;;0.80;0.60;;;33.30;73.80;;;;;;10049070;28;20073;-92
2022/08/16 13:56:23;;;;;;;1.65;0.75;;;34.10;71.10;;;;;;10041104;28;20058;-93
2022/08/16 14:01:43;;;;;;;1.08;0.60;;;34.30;71.00;;;;;;10025017;28;20166;-92
2022/08/16 14:07:10;;;;;;;0.98;0.60;;;34.90;68.40;;;;;;10092796;28;21207;-92
2022/08/16 14:17:59;;;;;;;3.90;0.50;;;35.40;65.80;;;;;;10382068;23;20085;-90
2022/08/16 14:23:35;;;;;;;1.50;0.50;;;35.40;65.80;;;;;;10163944;28;20073;-91
2022/08/16 14:28:57;;;;;;;1.02;0.38;;;36.00;63.50;;;;;;10083944;28;20499;-91
2022/08/16 14:34:05;;;;;;;1.10;0.65;;;34.60;62.80;;;;;;10217698;28;20054;-91
2022/08/16 14:39:35;;;;;;;0.70;0.40;;;34.90;61.80;;;;;;10049049;28;20579;-91
2022/08/16 14:44:47;;;;;;;1.85;0.43;;;35.60;62.20;;;;;;10135300;28;20431;-90
2022/08/16 14:49:54;;;;;;;0.60;0.40;;;34.70;61.80;;;;;;10039036;28;20038;-91
2022/08/16 14:55:08;;;;;;;0.75;0.40;;;34.20;62.10;;;;;;10340014;23;20542;-91
2022/08/16 15:00:28;;;;;;;2.60;0.60;;;34.90;63.60;;;;;;10190789;28;20068;-91
2022/08/16 15:05:39;;;;;;;0.75;0.40;;;35.10;62.60;;;;;;10336368;28;20117;-90
2022/08/16 15:10:44;;;;;;;1.08;0.40;;;35.00;62.00;;;;;;10361763;28;20047;-89
2022/08/16 15:16:05;;;;;;;5.72;0.47;;;33.30;63.00;;;;;;10226155;28;20049;-89
2022/08/16 15:21:07;;;;;;;2.00;0.40;;;34.50;62.90;;;;;;10329460;28;20061;-89
2022/08/16 15:26:10;;;;;;;0.95;0.43;;;35.00;61.70;;;;;;10346042;28;20441;-89
2022/08/16 15:31:40;;;;;;;1.35;0.40;;;35.30;61.00;;;;;;10322891;28;20065;-90
2022/08/16 15:37:01;;;;;;;0.30;0.30;;;35.60;59.90;;;;;;10355351;28;20061;-90
2022/08/16 15:42:09;;;;;;;1.63;0.30;;;35.60;59.70;;;;;;10309191;28;20046;-90
2022/08/16 15:47:32;;;;;;;1.77;0.40;;;35.30;58.50;;;;;;10332732;28;20049;-90
2022/08/16 15:52:36;;;;;;;0.60;0.40;;;33.80;59.40;;;;;;10274715;28;20050;-90
2022/08/16 15:57:42;;;;;;;0.95;0.38;;;33.10;61.10;;;;;;10092036;28;20111;-90
2022/08/16 16:03:08;;;;;;;1.17;0.40;;;33.00;61.30;;;;;;9980980;28;20043;-90
2022/08/16 16:08:19;;;;;;;3.75;0.55;;;33.10;62.90;;;;;;10105563;28;20531;-90
2022/08/16 16:13:26;;;;;;;0.40;0.35;;;33.10;63.30;;;;;;10070317;28;20050;-91
2022/08/16 16:18:33;;;;;;;0.75;0.40;;;33.20;62.50;;;;;;10135707;28;20105;-91
2022/08/16 16:23:43;;;;;;;1.10;0.50;;;33.50;62.20;;;;;;10079685;28;20105;-91
2022/08/16 16:29:23;;;;;;;1.10;0.30;;;33.10;61.90;;;;;;10073822;28;20129;-92
2022/08/16 16:35:07;;;;;;;2.15;0.43;;;32.40;62.00;;;;;;10015093;28;20049;-91
2022/08/16 16:40:38;;;;;;;4.30;0.60;;;32.50;62.40;;;;;;10034348;28;20059;-92
2022/08/16 16:46:10;;;;;;;0.57;0.40;;;32.60;61.90;;;;;;9992822;28;20046;-90
2022/08/16 16:51:52;;;;;;;0.60;0.40;;;32.50;62.20;;;;;;10087692;28;20051;-90
2022/08/16 17:08:49;;;;;;;0.90;0.50;;;32.30;63.40;;;;;;10028171;28;20051;-90
2022/08/16 17:14:06;;;;;;;1.92;0.60;;;32.80;62.40;;;;;;10242776;28;20136;-90
2022/08/16 17:19:28;;;;;;;1.20;0.60;;;32.90;63.70;;;;;;10100032;28;20114;-90
2022/08/16 17:24:34;;;;;;;1.25;0.45;;;32.90;63.00;;;;;;10295902;28;20397;-90
2022/08/16 17:29:53;;;;;;;2.35;0.90;;;32.80;62.80;;;;;;10272940;28;20051;-91
2022/08/16 17:35:16;;;;;;;0.82;0.50;;;32.60;62.90;;;;;;10215662;28;20050;-92
2022/08/16 17:40:27;;;;;;;1.23;0.50;;;32.40;63.30;;;;;;10200843;28;20760;-91
2022/08/16 17:45:47;;;;;;;2.85;1.10;;;32.10;63.20;;;;;;10129952;28;20056;-91
2022/08/16 17:51:32;;;;;;;1.58;0.40;;;31.70;64.10;;;;;;10123734;28;20067;-91
2022/08/16 17:57:02;;;;;;;1.45;0.93;;;31.30;64.50;;;;;;9842206;28;20053;-92
2022/08/16 18:02:37;;;;;;;1.00;0.47;;;30.90;65.50;;;;;;10003689;28;20027;-91
2022/08/16 18:08:11;;;;;;;0.70;0.70;;;30.60;66.10;;;;;;10116300;28;20091;-92
2022/08/16 18:13:16;;;;;;;1.48;0.70;;;30.20;68.10;;;;;;10128974;28;20134;-92
2022/08/16 18:19:17;;;;;;;2.60;1.00;;;29.90;68.40;;;;;;10010374;28;20051;-93
2022/08/16 18:25:31;;;;;;;;;;;;;;;;;;;;;
2022/08/16 18:31:31;;;;;;;4.22;1.10;;;29.00;71.20;;;;;;9907601;29;20057;-92
2022/08/16 18:37:19;;;;;;;2.58;0.90;;;28.70;73.50;;;;;;9851486;29;20042;-93
2022/08/16 18:43:22;;;;;;;;;;;;;;;;;;;;;
2022/08/16 18:49:07;;;;;;;1.42;0.93;;;28.00;75.20;;;;;;9908199;29;20040;-92
2022/08/16 18:54:55;;;;;;;3.03;1.00;;;27.70;76.30;;;;;;9746794;29;20042;-92
2022/08/16 19:00:39;;;;;;;1.55;1.05;;;27.40;78.10;;;;;;9946955;28;20056;-93
2022/08/16 19:06:11;;;;;;;5.90;1.00;;;27.00;79.20;;;;;;9889356;28;20098;-92
2022/08/16 19:12:10;;;;;;;4.22;1.75;;;26.80;80.00;;;;;;9927402;28;20057;-92
2022/08/16 19:18:26;;;;;;;3.42;1.20;;;26.60;81.70;;;;;;9961968;28;20086;-92
2022/08/16 19:24:48;;;;;;;6.75;1.10;;;26.20;83.90;;;;;;9738919;29;20056;-92
2022/08/16 19:31:16;;;;;;;5.03;0.90;;;25.90;83.90;;;;;;9930151;29;20048;-92
2022/08/16 19:37:30;;;;;;;4.80;0.77;;;25.60;84.70;;;;;;9947026;29;20045;-92
2022/08/16 19:43:58;;;;;;;1.58;0.80;;;25.30;84.50;;;;;;9945804;29;20045;-92
2022/08/16 19:49:50;;;;;;;4.68;0.90;;;25.00;85.70;;;;;;9884324;29;20096;-92
2022/08/16 19:55:48;;;;;;;4.05;1.05;;;24.80;86.60;;;;;;10040117;29;20053;-91
2022/08/16 20:01:58;;;;;;;3.50;0.90;;;24.70;87.80;;;;;;10003946;28;20119;-92
2022/08/16 20:07:39;;;;;;;4.70;0.90;;;24.50;89.40;;;;;;9927787;28;20449;-92
2022/08/16 20:13:01;;;;;;;3.58;0.68;;;24.20;90.20;;;;;;10160039;23;1097609;-64
2022/08/16 20:18:03;;;;;;;2.97;0.73;;;24.00;90.90;;;;;;10268313;28;20042;-64
2022/08/16 20:23:21;;;;;;;2.72;0.82;;;23.80;91.50;;;;;;10285847;28;20073;-65
2022/08/16 20:28:26;;;;;;;1.40;0.70;;;23.50;91.90;;;;;;10293395;28;20097;-65
2022/08/16 20:33:48;;;;;;;1.30;0.70;;;23.40;92.40;;;;;;10293532;28;20085;-64
2022/08/16 20:38:51;;;;;;;1.13;0.70;;;23.30;92.90;;;;;;10285199;28;20063;-65
2022/08/16 20:43:53;;;;;;;2.78;0.70;;;23.10;93.40;;;;;;10285258;28;20054;-64
2022/08/16 20:48:55;;;;;;;1.27;0.60;;;23.00;94.00;;;;;;10290781;28;20102;-64
2022/08/16 20:53:57;;;;;;;5.03;0.80;;;22.90;94.40;;;;;;10260895;28;20050;-63
2022/08/16 20:58:59;;;;;;;2.47;0.98;;;22.80;95.00;;;;;;10248943;28;20054;-64
2022/08/16 21:04:01;;;;;;;2.70;0.80;;;22.70;95.20;;;;;;10257414;28;20122;-65
2022/08/16 21:09:03;;;;;;;2.35;0.80;;;22.60;95.80;;;;;;10257019;28;20689;-64
2022/08/16 21:14:09;;;;;;;4.82;0.90;;;22.50;96.70;;;;;;10259327;28;20497;-64
2022/08/16 21:19:11;;;;;;;3.53;1.17;;;22.40;96.60;;;;;;10253383;28;20058;-64
2022/08/16 21:24:14;;;;;;;1.90;0.73;;;22.30;97.00;;;;;;10253937;28;20062;-63
2022/08/16 21:29:15;;;;;;;6.13;0.70;;;22.10;97.40;;;;;;10260834;28;20066;-65
2022/08/16 21:34:17;;;;;;;4.15;0.75;;;22.00;97.60;;;;;;10256515;28;20047;-65
2022/08/16 21:39:19;;;;;;;2.78;0.90;;;21.90;98.30;;;;;;10253213;28;20401;-64
2022/08/16 21:44:21;;;;;;;1.17;0.80;;;21.80;98.90;;;;;;10250910;28;20047;-63
2022/08/16 21:49:33;;;;;;;2.08;0.80;;;21.70;99.20;;;;;;10241019;28;20050;-64
2022/08/16 21:54:35;;;;;;;1.17;0.88;;;21.60;99.60;;;;;;10250161;28;20092;-64
2022/08/16 21:59:37;;;;;;;2.78;1.00;;;21.60;99.90;;;;;;10247992;28;20051;-63
2022/08/16 22:04:39;;;;;;;2.55;0.77;;;21.50;99.90;;;;;;10258229;28;20055;-63
2022/08/16 22:09:42;;;;;;;1.20;0.63;;;21.40;99.90;;;;;;10255475;28;20063;-63
2022/08/16 22:14:43;;;;;;;3.20;0.88;;;21.40;99.90;;;;;;10297562;28;20654;-63
2022/08/16 22:19:45;;;;;;;1.80;0.80;;;21.30;99.90;;;;;;10291502;28;20070;-63
2022/08/16 22:24:47;;;;;;;7.32;0.90;;;21.10;99.90;;;;;;10292078;28;20051;-63
2022/08/16 22:29:49;;;;;;;1.27;0.70;;;21.00;99.90;;;;;;10293889;28;20053;-64
2022/08/16 22:34:52;;;;;;;4.82;1.15;;;21.00;99.90;;;;;;10291637;28;20827;-63
2022/08/16 22:39:56;;;;;;;2.25;0.93;;;20.90;99.90;;;;;;10296477;28;20051;-63
2022/08/16 22:45:04;;;;;;;1.27;1.10;;;20.80;99.90;;;;;;10296524;28;20043;-63
2022/08/16 22:50:06;;;;;;;2.85;0.98;;;20.70;99.90;;;;;;10299278;28;20069;-63
2022/08/16 22:55:08;;;;;;;2.17;1.02;;;20.60;99.90;;;;;;10295951;28;20053;-63
2022/08/16 23:00:13;;;;;;;1.92;0.90;;;20.50;99.90;;;;;;10297812;28;20066;-64
2022/08/16 23:05:16;;;;;;;2.58;1.65;;;20.50;99.90;;;;;;10300229;28;21587;-63
2022/08/16 23:10:19;;;;;;;1.90;0.80;;;20.40;99.90;;;;;;10295699;28;20062;-63
2022/08/16 23:15:23;;;;;;;1.40;0.98;;;20.30;99.90;;;;;;10275074;28;20042;-63
2022/08/16 23:20:27;;;;;;;1.85;0.88;;;20.30;99.90;;;;;;10291832;28;20141;-63
2022/08/16 23:25:33;;;;;;;2.28;0.90;;;20.20;99.90;;;;;;10290749;28;20072;-63
2022/08/16 23:30:35;;;;;;;3.85;0.98;;;20.10;99.90;;;;;;10296432;28;20054;-67
2022/08/16 23:35:51;;;;;;;1.88;1.00;;;20.00;99.90;;;;;;10294348;28;20038;-67
2022/08/16 23:40:53;;;;;;;3.70;1.08;;;20.00;99.90;;;;;;10289608;28;20053;-68
2022/08/16 23:45:59;;;;;;;1.92;0.88;;;19.90;99.90;;;;;;10289847;28;20547;-67
2022/08/16 23:51:05;;;;;;;3.08;1.23;;;19.90;99.90;;;;;;10292290;28;20057;-67
2022/08/16 23:56:18;;;;;;;1.27;1.10;;;19.90;99.90;;;;;;10272215;28;20129;-65
